createdAt,value
2023-01-19T00:01:06.034Z,5.70
2023-01-19T00:03:37.492Z,6.25
2023-01-19T00:06:09.502Z,6.47
2023-01-19T00:08:39.571Z,7.50
2023-01-19T00:11:08.969Z,7.13
2023-01-19T00:13:39.051Z,7.70
2023-01-19T00:16:09.216Z,5.25
2023-01-19T00:18:38.435Z,5.38
2023-01-19T00:21:09.195Z,7.03
2023-01-19T00:23:38.461Z,6.30
2023-01-19T00:26:09.087Z,8.43
2023-01-19T00:28:38.521Z,8.93
2023-01-19T00:31:08.030Z,6.82
2023-01-19T00:33:37.760Z,6.45
2023-01-19T00:36:09.201Z,5.68
2023-01-19T00:38:39.389Z,6.55
2023-01-19T00:41:08.954Z,5.50
2023-01-19T00:43:37.133Z,6.70
2023-01-19T00:46:06.493Z,5.75
2023-01-19T00:48:35.789Z,6.22
2023-01-19T00:51:05.115Z,6.40
2023-01-19T00:53:35.979Z,5.28
2023-01-19T00:56:05.314Z,6.65
2023-01-19T00:58:34.534Z,5.72
2023-01-19T01:01:05.212Z,5.55
2023-01-19T01:03:34.581Z,4.88
2023-01-19T01:06:04.139Z,5.03
2023-01-19T01:08:33.744Z,4.47
2023-01-19T01:11:04.497Z,6.18
2023-01-19T01:13:34.018Z,5.00
2023-01-19T01:16:03.451Z,5.25
2023-01-19T01:18:33.057Z,4.50
2023-01-19T01:21:05.504Z,6.63
2023-01-19T01:23:35.114Z,7.43
2023-01-19T01:26:06.220Z,7.82
2023-01-19T01:28:35.657Z,8.23
2023-01-19T01:31:04.912Z,6.30
2023-01-19T01:33:40.847Z,6.30
2023-01-19T01:36:11.739Z,5.63
2023-01-19T01:38:41.439Z,8.20
2023-01-19T01:41:12.266Z,8.05
2023-01-19T01:43:47.317Z,6.47
2023-01-19T01:46:17.735Z,6.55
2023-01-19T01:48:55.253Z,5.93
2023-01-19T01:51:29.899Z,5.57
2023-01-19T01:54:09.928Z,7.20
2023-01-19T01:56:44.634Z,6.32
2023-01-19T01:59:26.247Z,7.20
2023-01-19T02:02:17.653Z,6.43
2023-01-19T02:04:52.628Z,5.00
2023-01-19T02:07:45.632Z,4.55
2023-01-19T02:10:31.919Z,5.25
2023-01-19T02:13:23.611Z,5.03
2023-01-19T02:15:54.921Z,4.72
2023-01-19T02:18:25.878Z,5.10
2023-01-19T02:21:08.112Z,7.40
2023-01-19T02:23:47.644Z,5.53
2023-01-19T02:26:19.981Z,6.32
2023-01-19T02:28:52.250Z,5.68
2023-01-19T02:31:21.848Z,6.13
2023-01-19T02:33:51.468Z,6.63
2023-01-19T02:36:26.230Z,7.43
2023-01-19T02:38:59.868Z,7.28
2023-01-19T02:41:32.881Z,8.32
2023-01-19T02:44:03.072Z,7.85
2023-01-19T02:46:32.181Z,7.75
2023-01-19T02:49:02.034Z,11.63
2023-01-19T02:51:31.509Z,9.25
2023-01-19T02:54:13.302Z,9.45
2023-01-19T02:56:59.383Z,9.88
2023-01-19T02:59:44.982Z,8.05
2023-01-19T03:05:10.318Z,10.25
2023-01-19T03:07:52.815Z,7.97
2023-01-19T03:10:34.115Z,8.35
2023-01-19T03:13:12.776Z,9.95
2023-01-19T03:15:47.157Z,7.45
2023-01-19T03:18:20.288Z,8.43
2023-01-19T03:20:53.920Z,7.32
2023-01-19T03:23:27.839Z,5.50
2023-01-19T03:26:01.800Z,7.50
2023-01-19T03:28:32.453Z,7.00
2023-01-19T03:31:07.762Z,10.65
2023-01-19T03:33:42.395Z,10.55
2023-01-19T03:36:15.963Z,10.50
2023-01-19T03:38:47.952Z,10.82
2023-01-19T03:41:21.482Z,12.05
2023-01-19T03:43:52.443Z,9.48
2023-01-19T03:46:24.227Z,11.27
2023-01-19T03:48:54.669Z,9.35
2023-01-19T03:51:24.320Z,9.60
2023-01-19T03:53:53.447Z,11.48
2023-01-19T03:56:25.576Z,11.75
2023-01-19T03:58:56.227Z,12.23
2023-01-19T04:01:26.317Z,10.98
2023-01-19T04:03:55.640Z,11.05
2023-01-19T04:06:25.026Z,12.93
2023-01-19T04:08:54.335Z,12.20
2023-01-19T04:11:24.970Z,13.02
2023-01-19T04:13:54.030Z,7.50
2023-01-19T04:16:23.902Z,7.55
2023-01-19T04:18:53.164Z,8.75
2023-01-19T04:21:22.347Z,7.70
2023-01-19T04:23:51.579Z,8.30
2023-01-19T04:26:20.704Z,6.68
2023-01-19T04:28:51.284Z,8.05
2023-01-19T04:31:20.924Z,10.10
2023-01-19T04:33:50.187Z,9.55
2023-01-19T04:36:19.299Z,8.85
2023-01-19T04:38:49.116Z,7.40
2023-01-19T04:41:18.755Z,9.75
2023-01-19T04:43:48.215Z,7.30
2023-01-19T04:46:18.817Z,8.13
2023-01-19T04:48:47.979Z,10.40
2023-01-19T04:51:17.128Z,9.80
2023-01-19T04:53:46.297Z,8.77
2023-01-19T04:56:15.510Z,8.30
2023-01-19T04:58:44.857Z,5.60
2023-01-19T05:01:13.981Z,6.05
2023-01-19T05:03:44.584Z,5.50
2023-01-19T05:06:14.068Z,6.10
2023-01-19T05:08:45.287Z,6.00
2023-01-19T05:11:14.479Z,5.80
2023-01-19T05:13:43.547Z,5.60
2023-01-19T05:16:14.379Z,6.57
2023-01-19T05:18:44.982Z,7.22
2023-01-19T05:21:14.060Z,7.70
2023-01-19T05:23:43.268Z,6.30
2023-01-19T05:26:13.971Z,6.57
2023-01-19T05:28:43.068Z,6.25
2023-01-19T05:31:12.290Z,5.88
2023-01-19T05:33:41.583Z,7.13
2023-01-19T05:36:12.420Z,4.38
2023-01-19T05:38:41.669Z,4.25
2023-01-19T05:41:10.782Z,4.50
2023-01-19T05:43:39.889Z,3.58
2023-01-19T05:46:09.254Z,3.80
2023-01-19T05:48:38.815Z,3.08
2023-01-19T05:51:08.162Z,2.15
2023-01-19T05:53:38.889Z,3.35
2023-01-19T05:56:10.250Z,4.45
2023-01-19T05:58:40.985Z,3.83
2023-01-19T06:01:11.740Z,3.47
2023-01-19T06:03:41.465Z,4.30
2023-01-19T06:06:10.675Z,3.40
2023-01-19T06:08:41.214Z,4.15
2023-01-19T06:11:10.767Z,2.65
2023-01-19T06:13:42.141Z,2.33
2023-01-19T06:16:12.149Z,3.80
2023-01-19T06:18:41.277Z,3.58
2023-01-19T06:21:12.824Z,4.57
2023-01-19T06:23:43.584Z,3.17
2023-01-19T06:26:12.913Z,3.45
2023-01-19T06:28:41.954Z,4.07
2023-01-19T06:31:11.169Z,4.22
2023-01-19T06:33:40.280Z,3.33
2023-01-19T06:36:09.776Z,3.88
2023-01-19T06:38:38.790Z,3.58
2023-01-19T06:41:09.569Z,3.95
2023-01-19T06:43:38.747Z,4.00
2023-01-19T06:46:08.097Z,4.40
2023-01-19T06:48:37.201Z,3.47
2023-01-19T06:51:06.995Z,3.60
2023-01-19T06:53:36.093Z,3.47
2023-01-19T06:56:06.605Z,3.75
2023-01-19T06:58:37.801Z,4.00
2023-01-19T07:01:08.309Z,4.78
2023-01-19T07:03:39.109Z,3.95
2023-01-19T07:06:08.630Z,4.40
2023-01-19T07:08:38.658Z,4.82
2023-01-19T07:11:25.977Z,5.22
2023-01-19T07:14:00.165Z,4.63
2023-01-19T07:16:29.539Z,2.63
2023-01-19T07:18:58.730Z,3.95
2023-01-19T07:21:29.311Z,3.88
2023-01-19T07:23:58.692Z,3.80
2023-01-19T07:26:28.410Z,4.93
2023-01-19T07:28:58.975Z,3.92
2023-01-19T07:31:28.186Z,4.32
2023-01-19T07:33:57.340Z,4.75
2023-01-19T07:36:26.544Z,4.13
2023-01-19T07:38:55.647Z,2.70
2023-01-19T07:41:24.731Z,4.40
2023-01-19T07:43:54.088Z,4.30
2023-01-19T07:46:24.774Z,4.43
2023-01-19T07:48:53.882Z,4.93
2023-01-19T07:51:22.973Z,4.68
2023-01-19T07:53:52.900Z,4.72
2023-01-19T07:56:22.851Z,4.60
2023-01-19T07:58:52.908Z,3.85
2023-01-19T08:01:22.100Z,4.22
2023-01-19T08:03:53.080Z,4.85
2023-01-19T08:06:24.164Z,3.88
2023-01-19T08:08:53.635Z,2.65
2023-01-19T08:11:22.767Z,4.35
2023-01-19T08:13:52.160Z,4.30
2023-01-19T08:16:21.311Z,5.72
2023-01-19T08:18:52.040Z,5.25
2023-01-19T08:21:21.120Z,4.80
2023-01-19T08:23:54.932Z,3.78
2023-01-19T08:26:30.268Z,4.55
2023-01-19T08:29:00.876Z,4.97
2023-01-19T08:31:30.482Z,4.90
2023-01-19T08:34:01.236Z,4.10
2023-01-19T08:36:30.808Z,5.82
2023-01-19T08:38:59.909Z,5.70
2023-01-19T08:41:29.050Z,4.80
2023-01-19T08:43:58.165Z,4.22
2023-01-19T08:46:27.596Z,4.68
2023-01-19T08:48:56.781Z,5.45
